Airfield :
LOGIN :

Register | Disclaimer

   EN    FR    IT 

 










Legend :    VFR   Marginal VFR   IFR   Intensive IFR   Very Intensive IFR
Visi :
Ceiling :
>= 8 km
>= 3000ft
5 to 8 km
1000 to 3000 ft
1500m to 5 km
500 to 1000 ft
800 to 1500m
200 to 500 ft
< 800m
< 200 ft
Symbols :   Thunderstorms  Fog  Heavy snow  Heavy precipitations  Wind > 20 kt
SIGMETs :     Misc.  Thunderstorms  Icing  Turbulence  Mountain Waves  Volcanic Ashes







- Airport Elevation : 124 ft
- IATA code : AVN
- Download approach charts


LFMV - Avignon Caumont

CURRENT METAR :
  • 151530Z AUTO 32003KT 9999 FEW068 10/01 Q1003 NOSIG

EXPIRED METARs :
  • 151500Z AUTO 34004KT 310V010 9999 FEW058 11/01 Q1003 NOSIG
  • 151430Z AUTO 32005KT 290V360 CAVOK 10/01 Q1003 NOSIG
  • 151400Z AUTO 34007KT CAVOK 11/02 Q1003 NOSIG
  • 151330Z AUTO 34010KT CAVOK 12/01 Q1003 NOSIG
  • 151300Z AUTO 35007KT 320V040 CAVOK 12/01 Q1003 NOSIG

TAF TAF LFMV
Valid from the 15 at 15:00 until the 16 at 15:00 UTC


151400Z 1515/1615 34012KT CAVOK
TEMPO 1518/1522 SHRA BKN030TCU
TEMPO 1611/1615 35017G30KT
ATIS : +33 4 90 84 32 84
No reported NOTAMs for that airfield.



MET'MAP, your aeronautical weather chart ! - Copyright ORBIFLY December 2007 - Disclaimer

ORBIFLY MET'MAP TEAM :

Programming & Development : Alexandra Zaïnal
Concept & Development : Baudouin d'Aumeries
Co-Development & Prog : Marc-Olivier Méhu
Technical & hardware support : Manuel Goepfert

Contact : metmap@orbifly.com




SOURCES & CREDITS :

   NOAA